Diego Garcia, British Indian Ocean

11:39 AM IOT on May 26, 2015 (GMT +0600)
Diego Garcia Navy | | Change Station
CLOSE
Current Station
Airport
Location: Diego Garcia,
Elevation: 10 ft
Nearby Weather Stations

Elev 10 ft 7.31 °S, 72.41 °E | Updated 44 minutes ago

Mostly Cloudy
Mostly Cloudy
84 °F
Feels Like 95 °F
N
6
Wind Variable Wind from ESE

Today
High -- | Low -- °F
--% Chance of Precip.
Yesterday
High -- | Low -- °F
Precip. -- in
7:15 AM 6:59 PM
First Quarter, 55% visible
Pressure 29.91 in
Visibility 6.2 miles
Clouds Scattered Clouds 2000 ft
Scattered Clouds 5000 ft
Mostly Cloudy 8000 ft
Heat Index 95 °F
Dew Point 79 °F
Humidity 86%
Rainfall 0.56 in
Snow Depth Not available.
UV 4 out of 12
Pollen Not available.
Air Quality Not available.
Flu Activity Not available.
METAR FJDG 260455Z 12005KT 9999 SCT020 SCT050 BKN080 29/26 A2992 RMK SLP129 T2SET T02870261

More Conditions Fewer Conditions

Pressure 29.91 in
Visibility 6.2 miles
Clouds Scattered Clouds 2000 ft
Scattered Clouds 5000 ft
Mostly Cloudy 8000 ft
Heat Index 95 °F
Dew Point 79 °F
Humidity 86%
Rainfall 0.56 in
Snow Depth Not available.
UV 4 out of 12
Pollen Not available.
Air Quality Not available.
Flu Activity Not available.
METAR FJDG 260455Z 12005KT 9999 SCT020 SCT050 BKN080 29/26 A2992 RMK SLP129 T2SET T02870261

More Conditions Fewer Conditions

10-Day Weather Forecast

Almanac

Astronomy

May. 26, 2015 Rise Set
Actual Time
Civil Twilight
Nautical Twilight
Astronomical Twilight
Moon
Length of Visible Light
Length of Day
Tomorrow will be .
, % of the Moon is Illuminated

Today's Extremes

Country Highs Country Lows

Community

WunderPhotos

Upload Photos

1,824,289 photos uploaded!

WunderBlogs® & News

Nearby

Air Quality

  Air Quality AQ Index Pollutant
Not available.

Snow Depth

Station Depth Elevation

Earthquake Activity

City Distance Mag. Time & Date
Minimum magnitude displayed is 2.5.

Coastal Water Temperatures

Place Temperature

Stations

Nearby Weather Stations

Station Location Temp. Windchill Dew Point Humidity Wind Precip. Elev Updated Type